sensor_id;sensor_type;location;lat;lon;timestamp;pressure;altitude;pressure_sealevel;temperature;humidity
62031;BME280;62035;52.094;5.112;2023-05-09T00:01:17;101875.75;;;15.93;100.00
62031;BME280;62035;52.094;5.112;2023-05-09T00:03:44;101871.66;;;16.15;100.00
62031;BME280;62035;52.094;5.112;2023-05-09T00:06:12;101867.41;;;16.05;100.00
62031;BME280;62035;52.094;5.112;2023-05-09T00:08:40;101868.38;;;15.95;100.00
62031;BME280;62035;52.094;5.112;2023-05-09T00:11:07;101864.03;;;15.94;100.00
62031;BME280;62035;52.094;5.112;2023-05-09T00:13:35;101862.84;;;15.71;100.00
62031;BME280;62035;52.094;5.112;2023-05-09T00:16:04;101868.38;;;15.70;100.00
62031;BME280;62035;52.094;5.112;2023-05-09T00:18:33;101867.03;;;15.91;100.00
62031;BME280;62035;52.094;5.112;2023-05-09T00:21:01;101868.44;;;15.78;100.00
62031;BME280;62035;52.094;5.112;2023-05-09T00:23:29;101871.34;;;15.84;100.00
62031;BME280;62035;52.094;5.112;2023-05-09T00:25:57;101864.84;;;15.95;100.00
62031;BME280;62035;52.094;5.112;2023-05-09T00:28:25;101859.66;;;15.93;100.00
62031;BME280;62035;52.094;5.112;2023-05-09T00:30:52;101853.13;;;15.96;100.00
62031;BME280;62035;52.094;5.112;2023-05-09T00:33:20;101850.53;;;15.86;100.00
62031;BME280;62035;52.094;5.112;2023-05-09T00:35:53;101849.69;;;15.60;100.00
62031;BME280;62035;52.094;5.112;2023-05-09T00:38:21;101854.69;;;15.55;100.00
62031;BME280;62035;52.094;5.112;2023-05-09T00:40:49;101850.13;;;15.73;100.00
62031;BME280;62035;52.094;5.112;2023-05-09T00:43:17;101857.00;;;15.76;100.00
62031;BME280;62035;52.094;5.112;2023-05-09T00:45:44;101846.59;;;15.73;100.00
62031;BME280;62035;52.094;5.112;2023-05-09T00:48:13;101843.97;;;15.81;100.00
62031;BME280;62035;52.094;5.112;2023-05-09T00:50:41;101841.00;;;15.92;100.00
62031;BME280;62035;52.094;5.112;2023-05-09T00:53:10;101842.69;;;15.67;100.00
62031;BME280;62035;52.094;5.112;2023-05-09T00:55:39;101823.53;;;15.62;100.00
62031;BME280;62035;52.094;5.112;2023-05-09T00:58:06;101826.72;;;15.57;100.00
62031;BME280;62035;52.094;5.112;2023-05-09T01:00:34;101827.41;;;15.59;100.00
62031;BME280;62035;52.094;5.112;2023-05-09T01:03:02;101823.97;;;15.75;100.00
62031;BME280;62035;52.094;5.112;2023-05-09T01:05:37;101819.06;;;15.71;100.00
62031;BME280;62035;52.094;5.112;2023-05-09T01:08:22;101817.50;;;15.60;100.00
62031;BME280;62035;52.094;5.112;2023-05-09T01:11:09;101813.31;;;15.57;100.00
62031;BME280;62035;52.094;5.112;2023-05-09T01:13:48;101816.19;;;15.64;100.00
62031;BME280;62035;52.094;5.112;2023-05-09T01:16:29;101813.19;;;15.67;100.00
62031;BME280;62035;52.094;5.112;2023-05-09T01:19:10;101810.53;;;15.75;100.00
62031;BME280;62035;52.094;5.112;2023-05-09T01:21:54;101803.66;;;15.73;100.00
62031;BME280;62035;52.094;5.112;2023-05-09T01:24:35;101796.34;;;15.83;100.00
62031;BME280;62035;52.094;5.112;2023-05-09T01:27:20;101795.28;;;15.76;100.00
62031;BME280;62035;52.094;5.112;2023-05-09T01:29:57;101780.44;;;15.89;100.00
62031;BME280;62035;52.094;5.112;2023-05-09T01:32:30;101782.44;;;15.61;100.00
62031;BME280;62035;52.094;5.112;2023-05-09T01:35:03;101779.50;;;15.73;100.00
62031;BME280;62035;52.094;5.112;2023-05-09T01:37:35;101784.28;;;15.87;100.00
62031;BME280;62035;52.094;5.112;2023-05-09T01:40:09;101780.75;;;15.86;100.00
62031;BME280;62035;52.094;5.112;2023-05-09T01:42:42;101777.81;;;15.72;100.00
62031;BME280;62035;52.094;5.112;2023-05-09T01:45:15;101776.50;;;15.50;100.00
62031;BME280;62035;52.094;5.112;2023-05-09T01:47:46;101773.19;;;15.56;100.00
62031;BME280;62035;52.094;5.112;2023-05-09T01:50:17;101761.81;;;15.62;100.00
62031;BME280;62035;52.094;5.112;2023-05-09T01:52:47;101756.31;;;15.63;100.00
62031;BME280;62035;52.094;5.112;2023-05-09T01:55:17;101752.28;;;15.67;100.00
62031;BME280;62035;52.094;5.112;2023-05-09T01:57:47;101751.94;;;15.62;100.00
62031;BME280;62035;52.094;5.112;2023-05-09T02:00:19;101757.81;;;15.58;100.00
62031;BME280;62035;52.094;5.112;2023-05-09T02:02:49;101750.34;;;15.78;100.00
62031;BME280;62035;52.094;5.112;2023-05-09T02:05:18;101741.56;;;15.67;100.00
62031;BME280;62035;52.094;5.112;2023-05-09T02:07:49;101738.34;;;15.64;100.00
62031;BME280;62035;52.094;5.112;2023-05-09T02:10:18;101736.69;;;15.63;100.00
62031;BME280;62035;52.094;5.112;2023-05-09T02:12:46;101736.78;;;15.53;100.00
62031;BME280;62035;52.094;5.112;2023-05-09T02:15:14;101742.78;;;15.47;100.00
62031;BME280;62035;52.094;5.112;2023-05-09T02:17:43;101735.19;;;15.68;100.00
62031;BME280;62035;52.094;5.112;2023-05-09T02:20:11;101729.84;;;15.68;100.00
62031;BME280;62035;52.094;5.112;2023-05-09T02:22:41;101737.63;;;15.54;100.00
62031;BME280;62035;52.094;5.112;2023-05-09T02:25:10;101738.88;;;15.67;100.00
62031;BME280;62035;52.094;5.112;2023-05-09T02:27:42;101737.41;;;15.47;100.00
62031;BME280;62035;52.094;5.112;2023-05-09T02:30:14;101739.19;;;15.64;100.00
62031;BME280;62035;52.094;5.112;2023-05-09T02:32:51;101742.72;;;15.65;100.00
62031;BME280;62035;52.094;5.112;2023-05-09T02:35:25;101739.53;;;15.35;100.00
62031;BME280;62035;52.094;5.112;2023-05-09T02:37:55;101741.09;;;15.20;100.00
62031;BME280;62035;52.094;5.112;2023-05-09T02:40:25;101744.72;;;15.37;100.00
62031;BME280;62035;52.094;5.112;2023-05-09T02:42:54;101738.03;;;15.59;100.00
62031;BME280;62035;52.094;5.112;2023-05-09T02:45:22;101731.41;;;15.53;100.00
62031;BME280;62035;52.094;5.112;2023-05-09T02:47:51;101735.94;;;15.27;100.00
62031;BME280;62035;52.094;5.112;2023-05-09T02:50:19;101729.22;;;15.23;100.00
62031;BME280;62035;52.094;5.112;2023-05-09T02:52:46;101728.72;;;15.19;100.00
62031;BME280;62035;52.094;5.112;2023-05-09T02:55:14;101723.97;;;15.13;100.00
62031;BME280;62035;52.094;5.112;2023-05-09T02:57:41;101722.50;;;15.19;100.00
62031;BME280;62035;52.094;5.112;2023-05-09T03:00:10;101717.81;;;15.21;100.00
62031;BME280;62035;52.094;5.112;2023-05-09T03:02:38;101716.31;;;15.18;100.00
62031;BME280;62035;52.094;5.112;2023-05-09T03:05:08;101720.31;;;15.14;100.00
62031;BME280;62035;52.094;5.112;2023-05-09T03:07:35;101713.09;;;15.15;100.00
62031;BME280;62035;52.094;5.112;2023-05-09T03:10:04;101714.72;;;15.08;100.00
62031;BME280;62035;52.094;5.112;2023-05-09T03:12:32;101706.63;;;14.99;100.00
62031;BME280;62035;52.094;5.112;2023-05-09T03:14:59;101708.16;;;14.84;100.00
62031;BME280;62035;52.094;5.112;2023-05-09T03:17:27;101694.50;;;14.70;100.00
62031;BME280;62035;52.094;5.112;2023-05-09T03:19:55;101690.47;;;14.91;100.00
62031;BME280;62035;52.094;5.112;2023-05-09T03:22:23;101689.63;;;14.65;100.00
62031;BME280;62035;52.094;5.112;2023-05-09T03:24:51;101691.75;;;14.61;100.00
62031;BME280;62035;52.094;5.112;2023-05-09T03:27:19;101688.69;;;14.56;100.00
62031;BME280;62035;52.094;5.112;2023-05-09T03:29:46;101687.94;;;14.64;100.00
62031;BME280;62035;52.094;5.112;2023-05-09T03:32:14;101681.66;;;14.55;100.00
62031;BME280;62035;52.094;5.112;2023-05-09T03:34:41;101687.56;;;14.59;100.00
62031;BME280;62035;52.094;5.112;2023-05-09T03:37:09;101679.44;;;14.51;100.00
62031;BME280;62035;52.094;5.112;2023-05-09T03:39:38;101677.53;;;14.43;100.00
62031;BME280;62035;52.094;5.112;2023-05-09T03:42:05;101679.91;;;14.46;100.00
62031;BME280;62035;52.094;5.112;2023-05-09T03:44:33;101677.97;;;14.56;100.00
62031;BME280;62035;52.094;5.112;2023-05-09T03:47:01;101671.03;;;14.46;100.00
62031;BME280;62035;52.094;5.112;2023-05-09T03:49:28;101671.03;;;14.46;100.00
62031;BME280;62035;52.094;5.112;2023-05-09T03:51:56;101666.13;;;14.41;100.00
62031;BME280;62035;52.094;5.112;2023-05-09T03:54:24;101661.31;;;14.45;100.00
62031;BME280;62035;52.094;5.112;2023-05-09T03:56:53;101654.66;;;14.49;100.00
62031;BME280;62035;52.094;5.112;2023-05-09T03:59:21;101658.94;;;14.42;100.00
62031;BME280;62035;52.094;5.112;2023-05-09T04:01:48;101655.72;;;14.38;100.00
62031;BME280;62035;52.094;5.112;2023-05-09T04:04:16;101656.78;;;14.45;100.00
62031;BME280;62035;52.094;5.112;2023-05-09T04:06:43;101653.41;;;14.61;100.00
62031;BME280;62035;52.094;5.112;2023-05-09T04:09:11;101657.78;;;14.62;100.00
62031;BME280;62035;52.094;5.112;2023-05-09T04:11:39;101653.34;;;14.53;100.00
62031;BME280;62035;52.094;5.112;2023-05-09T04:14:08;101662.69;;;14.49;100.00
62031;BME280;62035;52.094;5.112;2023-05-09T04:16:36;101648.28;;;14.50;100.00
62031;BME280;62035;52.094;5.112;2023-05-09T04:19:03;101648.22;;;14.59;100.00
62031;BME280;62035;52.094;5.112;2023-05-09T04:21:32;101644.25;;;14.46;100.00
62031;BME280;62035;52.094;5.112;2023-05-09T04:24:00;101644.06;;;14.65;100.00
62031;BME280;62035;52.094;5.112;2023-05-09T04:26:27;101639.88;;;14.62;100.00
62031;BME280;62035;52.094;5.112;2023-05-09T04:28:56;101643.91;;;14.66;100.00
62031;BME280;62035;52.094;5.112;2023-05-09T04:31:25;101634.13;;;14.83;100.00
62031;BME280;62035;52.094;5.112;2023-05-09T04:33:52;101636.81;;;14.83;100.00
62031;BME280;62035;52.094;5.112;2023-05-09T04:36:20;101634.50;;;14.88;100.00
62031;BME280;62035;52.094;5.112;2023-05-09T04:38:48;101636.63;;;14.77;100.00
62031;BME280;62035;52.094;5.112;2023-05-09T04:41:16;101630.75;;;14.73;100.00
62031;BME280;62035;52.094;5.112;2023-05-09T04:43:43;101624.75;;;14.79;100.00
62031;BME280;62035;52.094;5.112;2023-05-09T04:46:11;101624.25;;;14.84;100.00
62031;BME280;62035;52.094;5.112;2023-05-09T04:48:40;101614.22;;;14.86;100.00
62031;BME280;62035;52.094;5.112;2023-05-09T04:51:07;101615.28;;;14.93;100.00
62031;BME280;62035;52.094;5.112;2023-05-09T04:53:35;101612.13;;;14.97;100.00
62031;BME280;62035;52.094;5.112;2023-05-09T04:56:03;101618.22;;;14.82;100.00
62031;BME280;62035;52.094;5.112;2023-05-09T04:58:31;101606.53;;;14.91;100.00
62031;BME280;62035;52.094;5.112;2023-05-09T05:00:59;101605.31;;;14.77;100.00
62031;BME280;62035;52.094;5.112;2023-05-09T05:03:27;101607.19;;;14.85;100.00
62031;BME280;62035;52.094;5.112;2023-05-09T05:05:56;101603.13;;;14.81;100.00
62031;BME280;62035;52.094;5.112;2023-05-09T05:08:23;101601.25;;;14.99;100.00
62031;BME280;62035;52.094;5.112;2023-05-09T05:10:51;101594.56;;;15.03;100.00
62031;BME280;62035;52.094;5.112;2023-05-09T05:13:19;101584.19;;;15.08;100.00
62031;BME280;62035;52.094;5.112;2023-05-09T05:15:47;101595.31;;;15.21;100.00
62031;BME280;62035;52.094;5.112;2023-05-09T05:18:15;101588.28;;;15.28;100.00
62031;BME280;62035;52.094;5.112;2023-05-09T05:20:42;101587.34;;;15.46;100.00
62031;BME280;62035;52.094;5.112;2023-05-09T05:23:11;101571.28;;;15.54;100.00
62031;BME280;62035;52.094;5.112;2023-05-09T05:25:39;101568.63;;;15.62;100.00
62031;BME280;62035;52.094;5.112;2023-05-09T05:28:06;101566.56;;;15.48;100.00
62031;BME280;62035;52.094;5.112;2023-05-09T05:30:34;101564.63;;;15.58;100.00
62031;BME280;62035;52.094;5.112;2023-05-09T05:33:01;101564.63;;;15.58;100.00
62031;BME280;62035;52.094;5.112;2023-05-09T05:35:29;101560.28;;;15.73;100.00
62031;BME280;62035;52.094;5.112;2023-05-09T05:37:57;101555.94;;;15.88;100.00
62031;BME280;62035;52.094;5.112;2023-05-09T05:40:26;101543.19;;;15.82;100.00
62031;BME280;62035;52.094;5.112;2023-05-09T05:42:53;101547.91;;;15.88;100.00
62031;BME280;62035;52.094;5.112;2023-05-09T05:45:21;101548.25;;;15.93;100.00
62031;BME280;62035;52.094;5.112;2023-05-09T05:47:49;101535.13;;;15.82;100.00
62031;BME280;62035;52.094;5.112;2023-05-09T05:50:16;101545.69;;;15.67;100.00
62031;BME280;62035;52.094;5.112;2023-05-09T05:52:44;101528.06;;;15.73;100.00
62031;BME280;62035;52.094;5.112;2023-05-09T05:55:12;101532.25;;;15.67;100.00
62031;BME280;62035;52.094;5.112;2023-05-09T05:57:40;101528.03;;;15.49;100.00
62031;BME280;62035;52.094;5.112;2023-05-09T06:00:09;101527.38;;;15.55;100.00
62031;BME280;62035;52.094;5.112;2023-05-09T06:02:41;101536.44;;;15.62;100.00
62031;BME280;62035;52.094;5.112;2023-05-09T06:05:10;101530.06;;;15.55;100.00
62031;BME280;62035;52.094;5.112;2023-05-09T06:07:38;101524.91;;;15.78;100.00
62031;BME280;62035;52.094;5.112;2023-05-09T06:10:07;101520.69;;;15.59;100.00
62031;BME280;62035;52.094;5.112;2023-05-09T06:12:34;101523.38;;;15.59;100.00
62031;BME280;62035;52.094;5.112;2023-05-09T06:15:05;101520.75;;;15.33;100.00
62031;BME280;62035;52.094;5.112;2023-05-09T06:17:33;101512.38;;;15.28;100.00
62031;BME280;62035;52.094;5.112;2023-05-09T06:20:01;101523.97;;;15.45;100.00
62031;BME280;62035;52.094;5.112;2023-05-09T06:22:28;101527.41;;;15.13;100.00
62031;BME280;62035;52.094;5.112;2023-05-09T06:24:56;101522.91;;;15.21;100.00
62031;BME280;62035;52.094;5.112;2023-05-09T06:27:24;101519.53;;;15.11;100.00
62031;BME280;62035;52.094;5.112;2023-05-09T06:29:51;101517.69;;;15.12;100.00
62031;BME280;62035;52.094;5.112;2023-05-09T06:32:20;101514.53;;;15.16;100.00
62031;BME280;62035;52.094;5.112;2023-05-09T06:34:49;101523.19;;;15.02;100.00
62031;BME280;62035;52.094;5.112;2023-05-09T06:37:17;101520.22;;;15.13;100.00
62031;BME280;62035;52.094;5.112;2023-05-09T06:39:45;101514.53;;;15.16;100.00
62031;BME280;62035;52.094;5.112;2023-05-09T06:42:12;101515.81;;;15.04;100.00
62031;BME280;62035;52.094;5.112;2023-05-09T06:44:40;101518.88;;;15.09;100.00
62031;BME280;62035;52.094;5.112;2023-05-09T06:47:08;101513.09;;;14.96;100.00
62031;BME280;62035;52.094;5.112;2023-05-09T06:49:37;101514.66;;;15.07;100.00
62031;BME280;62035;52.094;5.112;2023-05-09T06:52:05;101515.09;;;14.94;100.00
62031;BME280;62035;52.094;5.112;2023-05-09T06:54:32;101520.53;;;15.10;100.00
62031;BME280;62035;52.094;5.112;2023-05-09T06:57:00;101506.06;;;14.95;100.00
62031;BME280;62035;52.094;5.112;2023-05-09T06:59:27;101506.09;;;15.03;100.00
62031;BME280;62035;52.094;5.112;2023-05-09T07:01:55;101514.47;;;15.00;100.00
62031;BME280;62035;52.094;5.112;2023-05-09T07:04:23;101507.09;;;15.02;100.00
62031;BME280;62035;52.094;5.112;2023-05-09T07:06:52;101484.31;;;14.98;100.00
62031;BME280;62035;52.094;5.112;2023-05-09T07:09:20;101496.25;;;15.20;100.00
62031;BME280;62035;52.094;5.112;2023-05-09T07:11:52;101499.53;;;14.97;100.00
62031;BME280;62035;52.094;5.112;2023-05-09T07:14:20;101487.56;;;15.18;100.00
62031;BME280;62035;52.094;5.112;2023-05-09T07:16:47;101488.41;;;15.18;100.00
62031;BME280;62035;52.094;5.112;2023-05-09T07:19:15;101487.88;;;15.15;100.00
62031;BME280;62035;52.094;5.112;2023-05-09T07:21:43;101496.44;;;15.26;100.00
62031;BME280;62035;52.094;5.112;2023-05-09T07:24:12;101484.03;;;15.17;100.00
62031;BME280;62035;52.094;5.112;2023-05-09T07:26:39;101491.41;;;15.23;100.00
62031;BME280;62035;52.094;5.112;2023-05-09T07:29:07;101480.94;;;14.96;100.00
62031;BME280;62035;52.094;5.112;2023-05-09T07:31:34;101480.66;;;15.07;100.00
62031;BME280;62035;52.094;5.112;2023-05-09T07:34:02;101476.47;;;15.21;100.00
62031;BME280;62035;52.094;5.112;2023-05-09T07:36:29;101476.00;;;15.17;100.00
62031;BME280;62035;52.094;5.112;2023-05-09T07:38:58;101477.50;;;15.28;100.00
62031;BME280;62035;52.094;5.112;2023-05-09T07:41:27;101473.63;;;15.06;100.00
62031;BME280;62035;52.094;5.112;2023-05-09T07:43:54;101476.09;;;14.99;100.00
62031;BME280;62035;52.094;5.112;2023-05-09T07:46:22;101470.47;;;15.27;100.00
62031;BME280;62035;52.094;5.112;2023-05-09T07:48:49;101464.44;;;15.17;100.00
62031;BME280;62035;52.094;5.112;2023-05-09T07:51:17;101456.53;;;15.23;100.00
62031;BME280;62035;52.094;5.112;2023-05-09T07:53:44;101458.91;;;15.26;100.00
62031;BME280;62035;52.094;5.112;2023-05-09T07:56:12;101457.19;;;15.09;100.00
62031;BME280;62035;52.094;5.112;2023-05-09T07:58:41;101453.53;;;15.10;100.00
62031;BME280;62035;52.094;5.112;2023-05-09T08:01:08;101450.72;;;15.36;100.00
62031;BME280;62035;52.094;5.112;2023-05-09T08:03:36;101449.69;;;15.29;100.00
62031;BME280;62035;52.094;5.112;2023-05-09T08:06:03;101435.75;;;15.09;100.00
62031;BME280;62035;52.094;5.112;2023-05-09T08:08:31;101438.09;;;15.12;100.00
62031;BME280;62035;52.094;5.112;2023-05-09T08:10:59;101440.47;;;15.15;100.00
62031;BME280;62035;52.094;5.112;2023-05-09T08:13:27;101427.72;;;15.25;100.00
62031;BME280;62035;52.094;5.112;2023-05-09T08:15:56;101425.03;;;15.09;100.00
62031;BME280;62035;52.094;5.112;2023-05-09T08:18:23;101429.06;;;15.13;100.00
62031;BME280;62035;52.094;5.112;2023-05-09T08:20:51;101420.69;;;15.16;100.00
62031;BME280;62035;52.094;5.112;2023-05-09T08:23:19;101417.50;;;15.13;100.00
62031;BME280;62035;52.094;5.112;2023-05-09T08:25:46;101401.59;;;15.11;100.00
62031;BME280;62035;52.094;5.112;2023-05-09T08:28:14;101392.69;;;15.02;100.00
62031;BME280;62035;52.094;5.112;2023-05-09T08:30:41;101391.34;;;15.23;100.00
62031;BME280;62035;52.094;5.112;2023-05-09T08:33:10;101404.13;;;15.45;100.00
62031;BME280;62035;52.094;5.112;2023-05-09T08:35:38;101392.91;;;15.50;100.00
62031;BME280;62035;52.094;5.112;2023-05-09T08:38:05;101397.41;;;15.41;100.00
62031;BME280;62035;52.094;5.112;2023-05-09T08:40:34;101393.72;;;15.50;100.00
62031;BME280;62035;52.094;5.112;2023-05-09T08:43:05;101389.72;;;15.62;100.00
62031;BME280;62035;52.094;5.112;2023-05-09T08:45:34;101385.84;;;15.49;100.00
62031;BME280;62035;52.094;5.112;2023-05-09T08:48:14;101393.56;;;15.52;100.00
62031;BME280;62035;52.094;5.112;2023-05-09T08:50:43;101387.34;;;15.35;100.00
62031;BME280;62035;52.094;5.112;2023-05-09T08:53:11;101364.72;;;15.29;100.00
62031;BME280;62035;52.094;5.112;2023-05-09T08:55:40;101376.13;;;15.56;100.00
62031;BME280;62035;52.094;5.112;2023-05-09T08:58:08;101369.75;;;15.49;100.00
62031;BME280;62035;52.094;5.112;2023-05-09T09:00:36;101371.09;;;15.37;100.00
62031;BME280;62035;52.094;5.112;2023-05-09T09:03:05;101365.56;;;15.62;100.00
62031;BME280;62035;52.094;5.112;2023-05-09T09:05:36;101368.06;;;15.48;100.00
62031;BME280;62035;52.094;5.112;2023-05-09T09:08:08;101368.91;;;15.48;100.00
62031;BME280;62035;52.094;5.112;2023-05-09T09:10:39;101364.88;;;15.68;100.00
62031;BME280;62035;52.094;5.112;2023-05-09T09:13:09;101367.75;;;15.67;100.00
62031;BME280;62035;52.094;5.112;2023-05-09T09:15:40;101368.25;;;15.79;100.00
62031;BME280;62035;52.094;5.112;2023-05-09T09:18:13;101360.19;;;15.79;100.00
62031;BME280;62035;52.094;5.112;2023-05-09T09:20:48;101345.28;;;15.60;100.00
62031;BME280;62035;52.094;5.112;2023-05-09T09:23:19;101360.53;;;15.76;100.00
62031;BME280;62035;52.094;5.112;2023-05-09T09:25:56;101338.72;;;15.62;100.00
62031;BME280;62035;52.094;5.112;2023-05-09T09:28:24;101343.41;;;15.85;100.00
62031;BME280;62035;52.094;5.112;2023-05-09T09:30:52;101346.31;;;15.59;100.00
62031;BME280;62035;52.094;5.112;2023-05-09T09:33:21;101338.56;;;15.64;100.00
62031;BME280;62035;52.094;5.112;2023-05-09T09:35:52;101337.56;;;15.73;100.00
62031;BME280;62035;52.094;5.112;2023-05-09T09:38:21;101338.22;;;15.83;100.00
62031;BME280;62035;52.094;5.112;2023-05-09T09:40:53;101340.56;;;15.70;100.00
62031;BME280;62035;52.094;5.112;2023-05-09T09:43:26;101336.38;;;15.84;100.00
62031;BME280;62035;52.094;5.112;2023-05-09T09:45:55;101334.53;;;15.76;100.00
62031;BME280;62035;52.094;5.112;2023-05-09T09:48:23;101335.19;;;15.78;100.00
62031;BME280;62035;52.094;5.112;2023-05-09T09:50:54;101336.88;;;15.79;100.00
62031;BME280;62035;52.094;5.112;2023-05-09T09:53:25;101332.72;;;15.52;100.00
62031;BME280;62035;52.094;5.112;2023-05-09T09:55:55;101323.78;;;15.76;100.00
62031;BME280;62035;52.094;5.112;2023-05-09T09:58:23;101336.38;;;15.76;100.00
62031;BME280;62035;52.094;5.112;2023-05-09T10:01:03;101330.97;;;15.92;100.00
62031;BME280;62035;52.094;5.112;2023-05-09T10:03:36;101323.53;;;16.02;100.00
62031;BME280;62035;52.094;5.112;2023-05-09T10:06:08;101322.78;;;15.85;100.00
62031;BME280;62035;52.094;5.112;2023-05-09T10:08:38;101320.06;;;15.93;100.00
62031;BME280;62035;52.094;5.112;2023-05-09T10:11:05;101326.47;;;15.76;100.00
62031;BME280;62035;52.094;5.112;2023-05-09T10:13:34;101322.47;;;15.72;100.00
62031;BME280;62035;52.094;5.112;2023-05-09T10:16:04;101318.44;;;15.68;100.00
62031;BME280;62035;52.094;5.112;2023-05-09T10:18:35;101316.59;;;15.68;100.00
62031;BME280;62035;52.094;5.112;2023-05-09T10:21:03;101319.13;;;15.54;100.00
62031;BME280;62035;52.094;5.112;2023-05-09T10:23:36;101315.44;;;15.55;100.00
62031;BME280;62035;52.094;5.112;2023-05-09T10:26:15;101321.97;;;15.52;100.00
62031;BME280;62035;52.094;5.112;2023-05-09T10:28:44;101305.88;;;15.60;100.00
62031;BME280;62035;52.094;5.112;2023-05-09T10:31:18;101314.28;;;15.57;100.00
62031;BME280;62035;52.094;5.112;2023-05-09T10:33:51;101305.53;;;15.55;100.00
62031;BME280;62035;52.094;5.112;2023-05-09T10:36:22;101302.03;;;15.55;100.00
62031;BME280;62035;52.094;5.112;2023-05-09T10:38:50;101296.34;;;15.42;100.00
62031;BME280;62035;52.094;5.112;2023-05-09T10:41:21;101290.97;;;15.50;100.00
62031;BME280;62035;52.094;5.112;2023-05-09T10:43:49;101286.63;;;15.57;100.00
62031;BME280;62035;52.094;5.112;2023-05-09T10:46:17;101276.88;;;15.48;100.00
62031;BME280;62035;52.094;5.112;2023-05-09T10:48:46;101273.03;;;15.42;100.00
62031;BME280;62035;52.094;5.112;2023-05-09T10:51:16;101273.84;;;15.51;100.00
62031;BME280;62035;52.094;5.112;2023-05-09T10:53:47;101278.38;;;15.50;100.00
62031;BME280;62035;52.094;5.112;2023-05-09T10:56:21;101272.69;;;15.53;100.00
62031;BME280;62035;52.094;5.112;2023-05-09T10:58:49;101276.22;;;15.46;100.00
62031;BME280;62035;52.094;5.112;2023-05-09T11:01:28;101270.00;;;15.53;100.00
62031;BME280;62035;52.094;5.112;2023-05-09T11:03:58;101268.16;;;15.46;100.00
62031;BME280;62035;52.094;5.112;2023-05-09T11:06:43;101262.31;;;15.34;100.00
62031;BME280;62035;52.094;5.112;2023-05-09T11:09:36;101267.00;;;15.40;100.00
62031;BME280;62035;52.094;5.112;2023-05-09T11:12:08;101261.47;;;15.42;100.00
62031;BME280;62035;52.094;5.112;2023-05-09T11:14:38;101258.25;;;15.54;100.00
62031;BME280;62035;52.094;5.112;2023-05-09T11:17:09;101247.06;;;15.59;100.00
62031;BME280;62035;52.094;5.112;2023-05-09T11:20:00;101257.25;;;15.63;100.00
62031;BME280;62035;52.094;5.112;2023-05-09T11:22:37;101250.38;;;15.61;100.00
62031;BME280;62035;52.094;5.112;2023-05-09T11:25:10;101235.78;;;15.55;100.00
62031;BME280;62035;52.094;5.112;2023-05-09T11:27:41;101241.19;;;15.47;100.00
62031;BME280;62035;52.094;5.112;2023-05-09T11:30:11;101241.16;;;15.55;100.00
62031;BME280;62035;52.094;5.112;2023-05-09T11:32:42;101238.34;;;15.57;100.00
62031;BME280;62035;52.094;5.112;2023-05-09T11:35:12;101239.28;;;15.64;100.00
62031;BME280;62035;52.094;5.112;2023-05-09T11:37:47;101237.44;;;15.73;100.00
62031;BME280;62035;52.094;5.112;2023-05-09T11:40:18;101232.09;;;15.64;100.00
62031;BME280;62035;52.094;5.112;2023-05-09T11:42:49;101226.59;;;15.42;100.00
62031;BME280;62035;52.094;5.112;2023-05-09T11:45:19;101228.44;;;15.49;100.00
62031;BME280;62035;52.094;5.112;2023-05-09T11:47:48;101231.72;;;15.76;100.00
62031;BME280;62035;52.094;5.112;2023-05-09T11:50:17;101218.91;;;15.94;100.00
62031;BME280;62035;52.094;5.112;2023-05-09T11:52:47;101216.25;;;15.86;100.00
62031;BME280;62035;52.094;5.112;2023-05-09T11:55:19;101215.94;;;15.81;100.00
62031;BME280;62035;52.094;5.112;2023-05-09T11:57:48;101215.91;;;15.89;100.00
62031;BME280;62035;52.094;5.112;2023-05-09T12:00:18;101211.38;;;15.89;100.00
62031;BME280;62035;52.094;5.112;2023-05-09T12:02:48;101212.63;;;16.01;100.00
62031;BME280;62035;52.094;5.112;2023-05-09T12:05:18;101203.41;;;16.04;100.00
62031;BME280;62035;52.094;5.112;2023-05-09T12:07:48;101199.16;;;16.10;100.00
62031;BME280;62035;52.094;5.112;2023-05-09T12:10:20;101210.09;;;16.08;100.00
62031;BME280;62035;52.094;5.112;2023-05-09T12:12:49;101204.66;;;15.93;100.00
62031;BME280;62035;52.094;5.112;2023-05-09T12:15:20;101197.38;;;16.02;100.00
62031;BME280;62035;52.094;5.112;2023-05-09T12:18:00;101201.91;;;16.01;100.00
62031;BME280;62035;52.094;5.112;2023-05-09T12:20:39;101199.84;;;16.12;100.00
62031;BME280;62035;52.094;5.112;2023-05-09T12:23:08;101198.28;;;15.94;100.00
62031;BME280;62035;52.094;5.112;2023-05-09T12:25:38;101193.78;;;15.87;100.00
62031;BME280;62035;52.094;5.112;2023-05-09T12:28:06;101194.91;;;15.92;100.00
62031;BME280;62035;52.094;5.112;2023-05-09T12:30:33;101190.97;;;16.03;100.00
62031;BME280;62035;52.094;5.112;2023-05-09T12:33:02;101186.88;;;15.92;100.00
62031;BME280;62035;52.094;5.112;2023-05-09T12:35:29;101182.22;;;15.78;100.00
62031;BME280;62035;52.094;5.112;2023-05-09T12:37:57;101183.75;;;16.04;100.00
62031;BME280;62035;52.094;5.112;2023-05-09T12:40:25;101184.91;;;16.09;100.00
62031;BME280;62035;52.094;5.112;2023-05-09T12:42:56;101181.44;;;16.00;100.00
62031;BME280;62035;52.094;5.112;2023-05-09T12:45:26;101180.34;;;16.18;100.00
62031;BME280;62035;52.094;5.112;2023-05-09T12:47:55;101177.81;;;16.16;100.00
62031;BME280;62035;52.094;5.112;2023-05-09T12:50:30;101169.78;;;16.16;100.00
62031;BME280;62035;52.094;5.112;2023-05-09T12:53:01;101176.22;;;16.30;100.00